Time;durP1;ratioP1;P1;durP2;ratioP2;P2;SDS_P1;SDS_P2;PMS_P1;PMS_P2;Temp;Humidity;BMP_temperature;BMP_pressure;BME280_temperature;BME280_humidity;BME280_pressure;Samples;Min_cycle;Max_cycle;Signal;HPM_P1;HPM_P2
2023/03/08 00:00:17;;;;;;;10.65;7.93;;;;;;;4.62;57.24;96631.94;5034650;28;20369;-81
2023/03/08 00:02:42;;;;;;;10.20;5.63;;;;;;;4.67;57.39;96626.97;5035394;28;20052;-81
2023/03/08 00:05:09;;;;;;;7.25;5.22;;;;;;;4.63;57.35;96634.38;5038416;28;20038;-81
2023/03/08 00:07:35;;;;;;;8.85;5.68;;;;;;;4.67;57.14;96642.56;5038279;28;20040;-80
2023/03/08 00:10:01;;;;;;;9.25;5.68;;;;;;;4.64;57.45;96632.56;5037835;28;20044;-82
2023/03/08 00:12:27;;;;;;;9.85;5.40;;;;;;;4.56;57.45;96629.16;5037185;28;20372;-81
2023/03/08 00:14:53;;;;;;;10.20;6.18;;;;;;;4.57;57.51;96641.16;5036023;28;20042;-81
2023/03/08 00:17:18;;;;;;;9.73;5.85;;;;;;;4.62;57.58;96629.34;5033473;28;20044;-81
2023/03/08 00:19:44;;;;;;;9.00;6.32;;;;;;;4.63;57.85;96631.78;5038937;28;20045;-81
2023/03/08 00:22:10;;;;;;;8.73;4.47;;;;;;;4.55;57.50;96629.34;5032415;28;20094;-82
2023/03/08 00:24:37;;;;;;;12.02;6.70;;;;;;;4.59;57.41;96635.75;5037500;28;20025;-80
2023/03/08 00:27:03;;;;;;;7.28;4.97;;;;;;;4.60;57.35;96641.75;5036974;28;20036;-81
2023/03/08 00:29:29;;;;;;;9.95;6.80;;;;;;;4.60;57.33;96652.13;5035519;28;20064;-81
2023/03/08 00:31:55;;;;;;;12.77;6.57;;;;;;;4.59;57.00;96651.34;5034537;28;20104;-81
2023/03/08 00:34:20;;;;;;;8.23;5.45;;;;;;;4.60;57.60;96631.34;5034395;28;20207;-81
2023/03/08 00:36:46;;;;;;;9.48;6.13;;;;;;;4.59;56.91;96651.34;5036373;28;20116;-82
2023/03/08 00:39:13;;;;;;;10.75;6.95;;;;;;;4.64;57.05;96661.13;5033518;28;20041;-81
2023/03/08 00:41:38;;;;;;;11.55;6.07;;;;;;;4.65;57.00;96644.56;5038131;28;20056;-81
2023/03/08 00:44:04;;;;;;;7.47;5.07;;;;;;;4.64;57.12;96637.78;5041251;28;20037;-81
2023/03/08 00:46:29;;;;;;;10.30;6.68;;;;;;;4.63;57.07;96673.31;5040919;28;20116;-81
2023/03/08 00:48:55;;;;;;;8.10;5.70;;;;;;;4.57;56.93;96633.38;5040912;28;20512;-81
2023/03/08 00:51:21;;;;;;;7.47;6.30;;;;;;;4.62;57.21;96652.72;5039076;28;20376;-81
2023/03/08 00:53:47;;;;;;;8.05;5.18;;;;;;;4.63;57.47;96638.78;5038677;28;20124;-81
2023/03/08 00:56:13;;;;;;;8.25;4.97;;;;;;;4.63;57.49;96641.38;5040714;28;20120;-82
2023/03/08 00:58:40;;;;;;;7.95;5.57;;;;;;;4.61;57.33;96659.72;5039486;28;20045;-82
2023/03/08 01:01:11;;;;;;;9.73;6.38;;;;;;;4.58;57.13;96636.75;5034074;28;20037;-81
2023/03/08 01:03:36;;;;;;;8.20;5.23;;;;;;;4.63;57.03;96638.78;5035160;28;20728;-81
2023/03/08 01:06:10;;;;;;;9.77;5.28;;;;;;;4.66;56.92;96646.16;5033405;28;20032;-82
2023/03/08 01:08:38;;;;;;;10.10;6.28;;;;;;;4.66;56.83;96656.53;5037868;28;20045;-81
2023/03/08 01:11:04;;;;;;;10.50;7.47;;;;;;;4.66;56.87;96640.97;5036290;28;20084;-81
2023/03/08 01:13:34;;;;;;;10.45;7.13;;;;;;;4.65;56.87;96657.53;5051539;28;20073;-81
2023/03/08 01:16:00;;;;;;;9.10;5.97;;;;;;;4.66;56.67;96657.34;5035505;28;20044;-81
2023/03/08 01:18:27;;;;;;;10.75;6.78;;;;;;;4.61;56.52;96641.53;5036089;28;20334;-82
2023/03/08 01:21:02;;;;;;;7.82;5.35;;;;;;;4.65;56.71;96654.94;5036954;28;20077;-81
2023/03/08 01:23:29;;;;;;;9.30;7.03;;;;;;;4.64;56.38;96655.94;5031514;28;20033;-81
2023/03/08 01:26:00;;;;;;;10.57;7.32;;;;;;;4.64;56.17;96640.38;5030678;28;20053;-81
2023/03/08 01:28:25;;;;;;;;;;;;;;;4.68;56.49;96638.94;5033625;28;20521;-81
2023/03/08 01:30:51;;;;;;;10.20;6.53;;;;;;;4.67;56.14;96642.56;5035984;28;19921;-82
2023/03/08 01:33:16;;;;;;;7.80;5.03;;;;;;;4.67;56.65;96650.34;5034203;28;20025;-82
2023/03/08 01:35:42;;;;;;;7.18;5.05;;;;;;;4.55;56.70;96630.16;5034078;28;20033;-81
2023/03/08 01:38:07;;;;;;;8.27;4.63;;;;;;;4.63;56.65;96641.38;5050728;28;20041;-81
2023/03/08 01:40:33;;;;;;;9.68;6.22;;;;;;;4.65;56.23;96641.97;5044365;28;20047;-81
2023/03/08 01:42:58;;;;;;;10.07;5.15;;;;;;;4.69;56.44;96638.78;5044146;28;20064;-82
2023/03/08 01:46:16;;;;;;;8.23;5.68;;;;;;;4.65;55.76;96639.38;5038271;28;20029;-81
2023/03/08 01:49:06;;;;;;;9.63;6.38;;;;;;;4.61;56.24;96638.16;5036877;28;20053;-81
2023/03/08 01:51:52;;;;;;;8.77;5.45;;;;;;;4.59;56.01;96650.53;5039154;28;20041;-82
2023/03/08 01:54:50;;;;;;;8.63;4.88;;;;;;;4.57;56.04;96629.97;5037384;28;20041;-81
2023/03/08 01:57:22;;;;;;;8.60;4.97;;;;;;;4.52;56.27;96638.34;5037200;28;20047;-82
2023/03/08 01:59:51;;;;;;;9.60;6.47;;;;;;;4.46;56.42;96641.72;5034960;28;20029;-82
2023/03/08 02:02:26;;;;;;;9.43;6.05;;;;;;;4.46;56.49;96646.91;5036926;28;20703;-81
2023/03/08 02:04:52;;;;;;;9.07;6.25;;;;;;;4.45;56.75;96640.13;5040139;28;20033;-81
2023/03/08 02:07:17;;;;;;;11.57;6.20;;;;;;;4.44;56.67;96632.53;5038941;28;20034;-81
2023/03/08 02:09:45;;;;;;;9.80;6.55;;;;;;;4.44;56.84;96638.53;5038048;28;20112;-82
2023/03/08 02:12:12;;;;;;;7.43;5.47;;;;;;;4.42;56.58;96630.13;5037864;28;20408;-81
2023/03/08 02:14:43;;;;;;;10.48;7.10;;;;;;;4.42;56.82;96632.72;5037048;28;20037;-81
2023/03/08 02:17:10;;;;;;;8.25;5.78;;;;;;;4.41;56.77;96632.91;5039707;28;20499;-81
2023/03/08 02:20:17;;;;;;;8.32;5.90;;;;;;;4.40;56.71;96626.94;5038651;28;20083;-81
2023/03/08 02:22:45;;;;;;;9.88;5.35;;;;;;;4.44;56.54;96615.16;5034007;28;20044;-81
2023/03/08 02:25:22;;;;;;;10.07;5.80;;;;;;;4.42;56.77;96609.34;5036181;28;20051;-81
2023/03/08 02:27:51;;;;;;;5.68;4.00;;;;;;;4.40;56.74;96606.16;5035234;28;20045;-81
2023/03/08 02:30:25;;;;;;;10.48;5.93;;;;;;;4.42;56.55;96614.53;5033960;28;20127;-81
2023/03/08 02:32:50;;;;;;;9.00;5.18;;;;;;;4.39;56.47;96620.16;5034907;28;20033;-81
2023/03/08 02:35:17;;;;;;;10.15;6.30;;;;;;;4.38;56.88;96618.56;5034576;28;20217;-81
2023/03/08 02:37:42;;;;;;;8.13;4.55;;;;;;;4.42;57.28;96613.75;5039335;28;20064;-81
2023/03/08 02:40:10;;;;;;;6.13;4.07;;;;;;;4.38;57.08;96599.56;5039269;28;20029;-81
2023/03/08 02:42:36;;;;;;;8.23;4.88;;;;;;;4.38;56.65;96596.97;5036306;28;20056;-81
2023/03/08 02:45:02;;;;;;;9.35;5.57;;;;;;;4.42;56.88;96592.97;5042494;28;20029;-81
2023/03/08 02:47:27;;;;;;;9.32;5.47;;;;;;;4.39;56.85;96596.78;5040257;28;20381;-81
2023/03/08 02:49:53;;;;;;;8.75;5.97;;;;;;;4.39;56.84;96601.97;5041258;28;20041;-81
2023/03/08 02:52:18;;;;;;;10.68;6.72;;;;;;;4.35;57.04;96600.75;5038303;28;20033;-82
2023/03/08 02:54:44;;;;;;;8.18;5.30;;;;;;;4.39;56.86;96598.59;5037608;28;20041;-81
2023/03/08 02:57:09;;;;;;;10.45;6.18;;;;;;;4.43;56.92;96602.38;5038454;28;20476;-81
2023/03/08 02:59:35;;;;;;;11.02;6.78;;;;;;;4.41;56.82;96607.75;5036480;28;20052;-81
2023/03/08 03:02:00;;;;;;;12.90;7.47;;;;;;;4.38;56.96;96615.13;5038215;28;20400;-81
2023/03/08 03:04:31;;;;;;;8.48;5.65;;;;;;;4.35;56.94;96608.53;5040095;28;20034;-82
2023/03/08 03:06:58;;;;;;;6.90;4.50;;;;;;;4.43;56.95;96610.16;5037524;28;20028;-81
2023/03/08 03:09:24;;;;;;;7.80;5.63;;;;;;;4.39;57.13;96606.38;5038324;28;20044;-81
2023/03/08 03:11:50;;;;;;;6.63;4.40;;;;;;;4.42;57.15;96609.34;5036359;28;20093;-81
2023/03/08 03:14:16;;;;;;;10.07;6.60;;;;;;;4.40;57.00;96619.16;5038126;28;20056;-81
2023/03/08 03:16:41;;;;;;;10.60;6.68;;;;;;;4.44;57.37;96612.56;5037566;28;20038;-81
2023/03/08 03:19:07;;;;;;;9.40;5.28;;;;;;;4.46;57.24;96609.78;5037187;28;20041;-81
2023/03/08 03:21:32;;;;;;;10.73;6.75;;;;;;;4.46;57.23;96607.19;5035808;28;20120;-81
2023/03/08 03:23:58;;;;;;;9.02;5.40;;;;;;;4.49;57.16;96593.78;5033138;28;20160;-81
2023/03/08 03:26:24;;;;;;;8.48;5.38;;;;;;;4.50;57.32;96591.00;5037860;28;20108;-81
2023/03/08 03:28:51;;;;;;;9.55;4.75;;;;;;;4.46;57.32;96579.41;5036816;28;20064;-81
2023/03/08 03:31:22;;;;;;;9.55;6.47;;;;;;;4.45;56.99;96585.59;5034378;28;20040;-80
2023/03/08 03:33:49;;;;;;;7.70;4.80;;;;;;;4.43;56.98;96582.41;5035112;28;20557;-81
2023/03/08 03:36:18;;;;;;;11.48;5.72;;;;;;;4.43;57.31;96573.81;5035560;28;20037;-81
2023/03/08 03:38:44;;;;;;;9.15;5.25;;;;;;;4.46;57.42;96579.41;5035415;28;20056;-80
2023/03/08 03:41:17;;;;;;;10.00;4.80;;;;;;;4.42;57.54;96577.41;5035682;28;20037;-80
2023/03/08 03:43:43;;;;;;;11.02;6.10;;;;;;;4.44;58.28;96586.63;5036213;28;20102;-80
2023/03/08 03:46:14;;;;;;;9.68;5.22;;;;;;;4.42;58.11;96582.59;5034540;28;20021;-81
2023/03/08 03:48:40;;;;;;;;;;;;;;;4.38;57.68;96584.81;5041088;28;20040;-81
2023/03/08 03:51:11;;;;;;;7.88;4.60;;;;;;;4.37;58.06;96585.78;5040460;28;19995;-81
2023/03/08 03:53:36;;;;;;;10.80;4.47;;;;;;;4.30;57.71;96596.16;5038993;28;20048;-81
2023/03/08 03:56:11;;;;;;;7.53;5.00;;;;;;;4.29;57.99;96589.38;5039217;28;20484;-81
2023/03/08 03:58:37;;;;;;;8.57;5.18;;;;;;;4.37;58.34;96598.75;5034498;28;20049;-81
2023/03/08 04:01:32;;;;;;;10.48;4.75;;;;;;;4.32;58.25;96588.19;5035015;28;20090;-81
2023/03/08 04:03:58;;;;;;;9.98;5.22;;;;;;;4.36;58.19;96583.38;5037036;28;20124;-81
2023/03/08 04:06:27;;;;;;;10.50;5.43;;;;;;;4.44;57.65;96586.63;5038599;28;20103;-81
2023/03/08 04:09:01;;;;;;;7.40;5.03;;;;;;;4.37;57.40;96583.19;5034331;28;20036;-81
2023/03/08 04:11:33;;;;;;;9.07;5.40;;;;;;;4.39;57.99;96585.59;5033706;28;20053;-81
2023/03/08 04:13:59;;;;;;;9.27;5.40;;;;;;;4.28;57.33;96559.22;5034503;28;20045;-81
2023/03/08 04:16:29;;;;;;;8.35;5.00;;;;;;;4.41;57.70;96576.59;5032783;28;20131;-81
2023/03/08 04:18:58;;;;;;;9.65;5.35;;;;;;;4.39;57.71;96578.63;5032197;28;20037;-81
2023/03/08 04:21:24;;;;;;;8.98;5.20;;;;;;;4.41;58.05;96579.19;5034618;28;20489;-81
2023/03/08 04:23:50;;;;;;;9.23;4.70;;;;;;;4.41;58.07;96575.81;5033291;28;20037;-81
2023/03/08 04:26:16;;;;;;;7.63;4.90;;;;;;;4.39;57.85;96577.81;5036595;28;20034;-81
2023/03/08 04:28:43;;;;;;;9.05;5.32;;;;;;;4.31;58.13;96586.56;5036294;28;20040;-81
2023/03/08 04:31:17;;;;;;;8.32;5.45;;;;;;;4.25;58.53;96576.97;5034477;28;20026;-81
2023/03/08 04:33:43;;;;;;;9.60;5.43;;;;;;;4.30;58.42;96570.19;5033734;28;20080;-81
2023/03/08 04:36:09;;;;;;;9.20;5.45;;;;;;;4.27;58.10;96575.00;5035398;28;20083;-81
2023/03/08 04:38:35;;;;;;;8.25;5.20;;;;;;;4.27;58.14;96564.63;5034367;28;20041;-81
2023/03/08 04:41:01;;;;;;;9.98;5.90;;;;;;;4.20;58.50;96564.59;5035091;28;20060;-81
2023/03/08 04:43:32;;;;;;;9.38;5.60;;;;;;;4.21;58.62;96560.22;5034214;28;20037;-81
2023/03/08 04:45:58;;;;;;;;;;;;;;;4.06;58.80;96562.16;5039928;28;20037;-81
2023/03/08 04:48:24;;;;;;;10.73;5.30;;;;;;;4.01;58.69;96547.16;5039572;28;19913;-81
2023/03/08 04:50:58;;;;;;;9.38;5.45;;;;;;;4.10;58.68;96537.44;5039318;28;20040;-81
2023/03/08 04:53:26;;;;;;;10.32;4.90;;;;;;;4.17;58.55;96549.41;5034398;28;20559;-81
2023/03/08 04:55:53;;;;;;;12.15;5.32;;;;;;;4.19;58.56;96541.44;5035267;28;20033;-81
2023/03/08 04:58:20;;;;;;;8.55;5.13;;;;;;;4.21;58.40;96535.06;5034164;28;20048;-81
2023/03/08 05:00:46;;;;;;;7.15;4.68;;;;;;;4.13;57.85;96540.41;5035945;28;20033;-81
2023/03/08 05:03:13;;;;;;;10.30;5.15;;;;;;;4.02;57.82;96547.00;5038732;28;20041;-81
2023/03/08 05:05:52;;;;;;;10.27;5.15;;;;;;;4.08;58.21;96527.25;5035998;28;20033;-81
2023/03/08 05:08:18;;;;;;;10.23;5.22;;;;;;;4.11;58.34;96528.66;5035015;28;20037;-81
2023/03/08 05:10:59;;;;;;;10.07;5.60;;;;;;;4.08;58.56;96527.25;5037433;28;20463;-81
2023/03/08 05:13:31;;;;;;;10.25;5.60;;;;;;;4.08;58.26;96521.25;5037638;28;20041;-80
2023/03/08 05:15:57;;;;;;;10.15;5.45;;;;;;;4.14;58.23;96512.66;5039185;28;20370;-81
2023/03/08 05:18:23;;;;;;;8.88;5.85;;;;;;;4.08;57.75;96503.06;5038184;28;20037;-81
2023/03/08 05:20:57;;;;;;;10.35;5.95;;;;;;;4.13;58.20;96511.06;5039380;28;20041;-81
2023/03/08 05:23:26;;;;;;;8.93;5.15;;;;;;;4.17;57.80;96491.53;5034811;28;20111;-81
2023/03/08 05:25:58;;;;;;;9.02;5.25;;;;;;;4.24;57.96;96500.13;5035767;28;20095;-81
2023/03/08 05:28:27;;;;;;;9.73;5.82;;;;;;;4.19;57.68;96503.28;5037833;28;20095;-81
2023/03/08 05:31:23;;;;;;;12.55;6.63;;;;;;;4.17;57.80;96491.53;5039030;28;20041;-81
2023/03/08 05:33:50;;;;;;;13.18;6.05;;;;;;;4.24;57.75;96494.94;5042930;28;20504;-80
2023/03/08 05:36:17;;;;;;;12.38;5.80;;;;;;;4.22;57.31;96504.72;5042390;28;20038;-81
2023/03/08 05:38:43;;;;;;;9.32;5.93;;;;;;;4.25;57.63;96506.91;5043703;28;20131;-81
2023/03/08 05:41:15;;;;;;;10.07;5.60;;;;;;;4.26;57.43;96498.16;5039805;28;20501;-80
2023/03/08 05:43:41;;;;;;;11.98;6.18;;;;;;;4.22;57.53;96505.50;5036972;28;20068;-81
2023/03/08 05:46:14;;;;;;;12.80;6.57;;;;;;;4.21;58.09;96503.13;5036780;28;20029;-81
2023/03/08 05:48:40;;;;;;;11.00;5.68;;;;;;;4.15;57.17;96504.72;5037006;28;20049;-81
2023/03/08 05:51:11;;;;;;;11.05;5.80;;;;;;;4.15;57.13;96504.72;5035933;28;20039;-81
2023/03/08 05:53:37;;;;;;;9.77;5.50;;;;;;;4.21;57.46;96503.13;5036268;28;20032;-81
2023/03/08 05:56:15;;;;;;;11.13;6.55;;;;;;;4.27;57.63;96502.31;5037541;28;20037;-81
2023/03/08 05:58:43;;;;;;;13.02;6.13;;;;;;;4.23;57.84;96508.91;5037965;28;20041;-81
2023/03/08 06:01:19;;;;;;;13.00;6.05;;;;;;;4.20;57.78;96511.91;5037363;28;20036;-80
2023/03/08 06:03:47;;;;;;;10.82;6.25;;;;;;;4.25;57.79;96514.69;5037419;28;20037;-81
2023/03/08 06:06:14;;;;;;;12.68;5.40;;;;;;;4.27;57.29;96528.28;5037008;28;20108;-81
2023/03/08 06:08:41;;;;;;;9.73;5.80;;;;;;;4.26;57.27;96516.31;5035503;28;20045;-81
2023/03/08 06:11:07;;;;;;;12.57;6.00;;;;;;;4.24;57.91;96521.66;5036357;28;20030;-80
2023/03/08 06:13:33;;;;;;;10.52;6.00;;;;;;;4.34;58.20;96521.28;5036646;28;20577;-81
2023/03/08 06:16:00;;;;;;;11.77;6.22;;;;;;;4.37;57.81;96528.66;5038338;28;20056;-81
2023/03/08 06:18:27;;;;;;;12.02;5.82;;;;;;;4.34;57.40;96528.28;5030851;28;20033;-81
2023/03/08 06:21:22;;;;;;;9.63;5.82;;;;;;;4.33;57.43;96524.91;5038491;28;20358;-81
2023/03/08 06:23:49;;;;;;;8.75;5.63;;;;;;;4.22;57.71;96509.91;5033267;28;20049;-82
2023/03/08 06:26:15;;;;;;;12.85;6.60;;;;;;;4.29;57.95;96528.88;5035349;28;20064;-81
2023/03/08 06:28:41;;;;;;;10.52;6.18;;;;;;;4.30;57.72;96528.66;5036973;28;20186;-81
2023/03/08 06:31:12;;;;;;;11.45;6.68;;;;;;;4.26;57.51;96516.31;5035916;28;20052;-81
2023/03/08 06:33:37;;;;;;;12.27;7.03;;;;;;;4.27;57.84;96510.13;5041911;28;20445;-83
2023/03/08 06:36:20;;;;;;;20.08;10.05;;;;;;;4.33;57.77;96513.72;5043193;28;20104;-82
2023/03/08 06:38:47;;;;;;;12.68;6.70;;;;;;;4.32;57.04;96505.13;5036978;28;20044;-82
2023/03/08 06:41:15;;;;;;;13.55;7.43;;;;;;;4.41;58.24;96516.91;5039185;28;20036;-82
2023/03/08 06:43:41;;;;;;;14.60;7.43;;;;;;;4.49;58.22;96511.50;5037366;28;20041;-79
2023/03/08 06:46:15;;;;;;;11.82;6.40;;;;;;;4.45;57.25;96494.75;5037403;28;20044;-81
2023/03/08 06:48:42;;;;;;;15.93;7.50;;;;;;;4.64;57.57;96500.13;5041759;28;20049;-80
2023/03/08 06:51:08;;;;;;;10.98;6.45;;;;;;;4.49;57.27;96490.72;5038800;28;20179;-80
2023/03/08 06:53:37;;;;;;;13.93;6.85;;;;;;;4.56;58.41;96495.94;5036550;28;20455;-80
2023/03/08 06:56:06;;;;;;;10.50;6.45;;;;;;;4.56;56.60;96507.13;5038921;28;20038;-80
2023/03/08 06:58:34;;;;;;;8.63;5.78;;;;;;;4.45;56.70;96504.34;5039916;28;20037;-80
2023/03/08 07:00:59;;;;;;;12.25;6.88;;;;;;;4.35;56.98;96509.91;5039207;28;20114;-80
2023/03/08 07:03:26;;;;;;;11.48;6.38;;;;;;;4.46;57.99;96504.13;5037792;28;20041;-80
2023/03/08 07:05:58;;;;;;;13.30;6.53;;;;;;;4.56;57.29;96512.31;5051752;28;20037;-80
2023/03/08 07:08:23;;;;;;;14.48;7.00;;;;;;;4.58;57.14;96514.72;5039236;28;20103;-80
2023/03/08 07:10:49;;;;;;;12.02;6.43;;;;;;;4.47;57.06;96513.50;5025676;28;20082;-80
2023/03/08 07:13:14;;;;;;;12.43;6.95;;;;;;;4.54;57.46;96509.13;5032882;28;20916;-80
2023/03/08 07:15:40;;;;;;;10.40;6.32;;;;;;;4.59;57.59;96507.72;5037287;28;20116;-80
2023/03/08 07:18:05;;;;;;;9.35;5.90;;;;;;;4.74;58.72;96503.94;5033672;28;20049;-80
2023/03/08 07:20:31;;;;;;;10.30;6.05;;;;;;;4.81;57.61;96502.13;5034846;28;20098;-81
2023/03/08 07:23:00;;;;;;;12.93;6.28;;;;;;;4.74;56.62;96492.75;5031987;28;20113;-80
2023/03/08 07:25:26;;;;;;;11.85;6.78;;;;;;;4.74;56.77;96503.13;5035951;28;20112;-80
2023/03/08 07:27:51;;;;;;;13.23;7.00;;;;;;;4.76;57.80;96495.94;5034163;28;20112;-80
2023/03/08 07:30:17;;;;;;;13.90;6.97;;;;;;;4.81;56.99;96485.75;5035441;28;20037;-80
2023/03/08 07:32:42;;;;;;;12.77;5.97;;;;;;;4.84;55.97;96493.13;5034362;28;20083;-80
2023/03/08 07:35:11;;;;;;;11.18;6.60;;;;;;;4.85;56.57;96502.50;5040858;28;20491;-80
2023/03/08 07:37:37;;;;;;;14.45;6.47;;;;;;;4.91;56.96;96509.47;5036647;28;20396;-80
2023/03/08 07:40:04;;;;;;;11.48;6.07;;;;;;;4.95;57.26;96492.50;5033782;28;20029;-81
2023/03/08 07:42:30;;;;;;;10.90;6.03;;;;;;;4.96;57.28;96509.69;5035348;28;20510;-80
2023/03/08 07:44:56;;;;;;;9.85;5.97;;;;;;;4.97;58.71;96498.28;5034871;28;20119;-80
2023/03/08 07:47:21;;;;;;;10.02;6.10;;;;;;;5.01;59.11;96499.47;5035843;28;20071;-80
2023/03/08 07:49:47;;;;;;;10.43;5.80;;;;;;;4.84;59.79;96499.09;5037003;28;20037;-80
2023/03/08 07:52:13;;;;;;;10.02;5.38;;;;;;;4.92;61.64;96503.31;5038046;28;20082;-80
2023/03/08 07:54:38;;;;;;;10.63;5.90;;;;;;;4.83;61.19;96509.69;5036689;28;20037;-81
2023/03/08 07:57:04;;;;;;;12.15;6.40;;;;;;;4.92;62.47;96512.88;5031926;28;20081;-80
2023/03/08 07:59:29;;;;;;;9.35;5.20;;;;;;;4.84;63.72;96513.88;5031304;28;20653;-80
2023/03/08 08:01:55;;;;;;;10.40;5.85;;;;;;;4.87;65.75;96513.50;5028322;28;20037;-80
2023/03/08 08:04:22;;;;;;;13.48;6.80;;;;;;;4.76;65.95;96512.31;5032807;28;20041;-80
2023/03/08 08:06:48;;;;;;;13.30;6.13;;;;;;;4.73;67.08;96517.88;5033323;28;20064;-80
2023/03/08 08:09:14;;;;;;;10.05;5.35;;;;;;;4.49;67.87;96519.28;5033619;28;20064;-80
2023/03/08 08:11:40;;;;;;;10.77;6.05;;;;;;;4.29;69.35;96511.50;5023195;28;20069;-80
2023/03/08 08:14:06;;;;;;;13.90;6.63;;;;;;;4.07;71.21;96511.88;5028358;28;20102;-80
2023/03/08 08:16:33;;;;;;;16.17;6.00;;;;;;;4.07;72.75;96511.88;5032983;28;20124;-80
2023/03/08 08:18:58;;;;;;;9.95;5.78;;;;;;;4.06;73.56;96505.09;5034313;28;20045;-80
2023/03/08 08:21:24;;;;;;;10.75;5.85;;;;;;;4.08;74.60;96509.09;5034767;28;20454;-80
2023/03/08 08:23:50;;;;;;;10.13;5.88;;;;;;;4.16;75.75;96513.28;5027718;28;20358;-80
2023/03/08 08:26:20;;;;;;;9.70;5.43;;;;;;;4.12;76.86;96501.69;5033181;28;20032;-80
2023/03/08 08:28:51;;;;;;;10.85;6.07;;;;;;;4.30;78.40;96500.13;5034322;28;20036;-80
2023/03/08 08:31:23;;;;;;;9.95;5.38;;;;;;;4.28;77.67;96483.16;5036356;28;20400;-80
2023/03/08 08:33:49;;;;;;;11.27;6.55;;;;;;;4.42;78.21;96479.56;5036894;28;20034;-81
2023/03/08 08:36:18;;;;;;;10.88;6.10;;;;;;;4.50;78.73;96466.41;5036670;28;20362;-81
2023/03/08 08:38:45;;;;;;;10.32;6.15;;;;;;;4.57;78.13;96462.00;5038741;28;20107;-81
2023/03/08 08:41:16;;;;;;;10.82;6.15;;;;;;;4.64;78.25;96461.97;5039704;28;20117;-82
2023/03/08 08:43:42;;;;;;;;;;;;;;;4.63;78.48;96446.59;5033339;28;20056;-81
2023/03/08 08:46:09;;;;;;;12.70;5.78;;;;;;;4.47;78.37;96446.00;5017438;28;19959;-81
2023/03/08 08:48:36;;;;;;;11.15;5.90;;;;;;;4.40;78.74;96428.84;5032868;28;20571;-80
2023/03/08 08:51:03;;;;;;;11.65;7.05;;;;;;;4.36;79.13;96422.47;5036065;28;20107;-80
2023/03/08 08:53:29;;;;;;;11.80;6.05;;;;;;;4.39;79.72;96419.47;5039012;28;20112;-81
2023/03/08 08:55:55;;;;;;;12.23;6.43;;;;;;;4.37;80.35;96409.28;5037890;28;20025;-81
2023/03/08 08:58:20;;;;;;;14.90;7.20;;;;;;;4.40;80.55;96398.50;5037538;28;20518;-81
2023/03/08 09:00:46;;;;;;;12.07;6.00;;;;;;;4.37;80.62;96393.69;5037602;28;20999;-80
2023/03/08 09:03:11;;;;;;;14.15;6.72;;;;;;;4.39;80.94;96386.53;5037593;28;20036;-81
2023/03/08 09:05:41;;;;;;;11.40;6.28;;;;;;;4.28;81.72;96395.72;5038564;28;20033;-80
2023/03/08 09:08:08;;;;;;;10.95;6.13;;;;;;;4.28;81.61;96380.16;5038493;28;20610;-81
2023/03/08 09:10:37;;;;;;;12.25;6.40;;;;;;;4.17;82.27;96374.75;5036115;28;20061;-80
2023/03/08 09:13:04;;;;;;;13.57;6.18;;;;;;;4.37;82.35;96372.94;5035294;28;20041;-81
2023/03/08 09:15:29;;;;;;;11.77;6.28;;;;;;;4.45;81.96;96364.94;5030007;28;20044;-81
2023/03/08 09:17:55;;;;;;;12.68;6.80;;;;;;;4.51;81.81;96358.16;5034434;28;20037;-80
2023/03/08 09:20:21;;;;;;;12.55;6.97;;;;;;;4.54;81.49;96362.91;5038491;28;20395;-81
2023/03/08 09:22:47;;;;;;;11.57;6.72;;;;;;;4.39;81.52;96350.19;5032903;28;20037;-81
2023/03/08 09:25:13;;;;;;;8.95;5.00;;;;;;;4.30;81.93;96336.59;5037757;28;20112;-81
2023/03/08 09:27:41;;;;;;;8.52;5.25;;;;;;;4.19;82.02;96339.03;5035707;28;20048;-80
2023/03/08 09:30:13;;;;;;;13.98;7.05;;;;;;;4.13;82.89;96319.06;5037087;28;20048;-80
2023/03/08 09:32:38;;;;;;;11.27;5.95;;;;;;;4.01;82.58;96311.91;5035389;28;20036;-80
2023/03/08 09:35:05;;;;;;;12.27;6.93;;;;;;;3.92;83.57;96305.34;5039762;28;20040;-80
2023/03/08 09:37:31;;;;;;;13.02;7.55;;;;;;;3.87;83.47;96312.91;5038083;28;20026;-80
2023/03/08 09:39:56;;;;;;;14.63;7.93;;;;;;;3.89;83.96;96299.75;5037601;28;20473;-80
2023/03/08 09:42:31;;;;;;;12.98;7.65;;;;;;;3.86;83.70;96282.81;5038649;28;20036;-80
2023/03/08 09:45:26;;;;;;;13.05;7.20;;;;;;;3.79;84.08;96271.66;5036875;28;20036;-80
2023/03/08 09:48:11;;;;;;;13.48;7.53;;;;;;;3.78;84.78;96259.69;5038736;28;20037;-81
2023/03/08 09:50:43;;;;;;;14.10;7.38;;;;;;;3.80;84.76;96247.31;5038863;28;20463;-81
2023/03/08 09:53:25;;;;;;;13.77;7.38;;;;;;;3.67;85.39;96242.13;5029655;28;20034;-81
2023/03/08 09:55:55;;;;;;;15.50;7.20;;;;;;;3.60;85.54;96236.13;5023049;28;20116;-81
2023/03/08 09:58:32;;;;;;;13.07;7.32;;;;;;;3.59;85.37;96229.38;5031691;28;20036;-81
2023/03/08 10:01:16;;;;;;;13.80;6.97;;;;;;;3.49;85.97;96220.22;5035567;28;20041;-81
2023/03/08 10:04:29;;;;;;;14.43;7.40;;;;;;;3.49;86.18;96222.00;5037510;28;20091;-81
2023/03/08 10:07:07;;;;;;;11.85;7.30;;;;;;;3.40;86.15;96215.44;5029415;28;20038;-81
2023/03/08 10:09:40;;;;;;;17.17;8.35;;;;;;;3.39;86.34;96193.09;5035638;28;20044;-81
2023/03/08 10:12:43;;;;;;;14.35;7.40;;;;;;;3.21;86.93;96193.72;5036678;28;20091;-81
2023/03/08 10:15:18;;;;;;;15.20;7.97;;;;;;;3.34;87.44;96191.09;5026296;28;20505;-81
2023/03/08 10:17:55;;;;;;;16.77;8.40;;;;;;;3.40;87.39;96195.50;5033032;28;20037;-81
2023/03/08 10:20:26;;;;;;;14.50;7.72;;;;;;;3.40;87.06;96192.91;5035756;28;20040;-81
2023/03/08 10:23:22;;;;;;;18.15;9.30;;;;;;;3.45;87.22;96161.19;5032159;28;20037;-81
2023/03/08 10:25:49;;;;;;;14.65;8.10;;;;;;;3.37;87.07;96190.72;5043480;28;20145;-82
2023/03/08 10:28:22;;;;;;;13.77;8.52;;;;;;;3.38;87.48;96163.81;5036068;28;20040;-81
2023/03/08 10:31:00;;;;;;;16.05;8.95;;;;;;;3.37;87.38;96171.78;5036193;28;20488;-81
2023/03/08 10:33:33;;;;;;;16.50;7.82;;;;;;;3.41;88.10;96189.31;5036604;28;20325;-81
2023/03/08 10:36:18;;;;;;;16.23;8.43;;;;;;;3.41;88.46;96176.34;5040793;28;20112;-81
2023/03/08 10:39:07;;;;;;;16.70;8.45;;;;;;;3.46;87.84;96168.78;5035838;28;20032;-81
2023/03/08 10:41:44;;;;;;;16.35;9.05;;;;;;;3.55;88.23;96181.53;5037164;28;20071;-81
2023/03/08 10:44:28;;;;;;;14.02;8.60;;;;;;;3.71;88.01;96176.69;5035205;28;20509;-81
2023/03/08 10:46:53;;;;;;;15.40;8.23;;;;;;;3.74;87.40;96184.09;5037317;28;20033;-81
2023/03/08 10:49:23;;;;;;;16.88;9.40;;;;;;;3.58;87.32;96181.13;5038445;28;20036;-81
2023/03/08 10:51:59;;;;;;;17.40;9.07;;;;;;;3.58;87.95;96183.72;5035085;28;20347;-80
2023/03/08 10:54:27;;;;;;;15.40;8.13;;;;;;;3.60;87.67;96168.75;5031664;28;20041;-81
2023/03/08 10:56:59;;;;;;;18.05;10.75;;;;;;;3.62;88.10;96164.97;5032698;28;20504;-81
2023/03/08 10:59:33;;;;;;;17.92;10.35;;;;;;;3.57;88.47;96162.19;5035872;28;20037;-81
2023/03/08 11:02:15;;;;;;;20.13;9.68;;;;;;;3.61;89.11;96167.75;5033543;28;20037;-80
2023/03/08 11:05:22;;;;;;;18.83;9.38;;;;;;;3.76;89.12;96163.13;5029280;28;20033;-81
2023/03/08 11:07:55;;;;;;;21.35;10.60;;;;;;;3.75;88.71;96166.72;5049354;28;20049;-80
2023/03/08 11:10:24;;;;;;;16.95;9.85;;;;;;;3.69;88.88;96162.34;5031952;28;20041;-81
2023/03/08 11:13:15;;;;;;;17.48;10.07;;;;;;;3.71;89.21;96145.59;5028554;28;20050;-81
2023/03/08 11:15:50;;;;;;;18.75;10.38;;;;;;;3.77;89.36;96149.16;5031962;28;20049;-81
2023/03/08 11:18:49;;;;;;;22.70;11.93;;;;;;;3.81;89.31;96137.38;5035483;28;20504;-81
2023/03/08 11:21:37;;;;;;;19.27;9.32;;;;;;;3.83;89.54;96137.19;5036115;28;20044;-81
2023/03/08 11:24:36;;;;;;;17.75;10.23;;;;;;;3.78;89.44;96139.56;5031071;28;20042;-81
2023/03/08 11:27:22;;;;;;;19.50;10.50;;;;;;;3.72;89.98;96129.06;5038825;28;20390;-81
2023/03/08 11:30:25;;;;;;;21.00;10.90;;;;;;;3.70;90.62;96127.66;5038361;28;20056;-81
2023/03/08 11:33:09;;;;;;;22.27;11.73;;;;;;;3.70;91.26;96135.41;5039521;28;20041;-81
2023/03/08 11:35:49;;;;;;;17.50;10.77;;;;;;;3.65;91.98;96132.63;5038931;28;20037;-81
2023/03/08 11:38:23;;;;;;;20.95;11.75;;;;;;;3.81;91.89;96131.41;5034818;28;20075;-80
2023/03/08 11:40:51;;;;;;;20.38;11.90;;;;;;;3.87;91.82;96121.00;5033513;28;20120;-81
2023/03/08 11:43:41;;;;;;;21.52;12.13;;;;;;;3.83;92.28;96112.03;5035659;28;20037;-81
2023/03/08 11:46:39;;;;;;;23.90;12.30;;;;;;;3.96;92.93;96121.59;5034214;28;20040;-81
2023/03/08 11:49:49;;;;;;;25.38;12.40;;;;;;;4.09;92.51;96107.75;5038113;28;20037;-82
2023/03/08 11:52:35;;;;;;;22.70;12.23;;;;;;;4.10;92.13;96098.97;5033328;28;20343;-81